Terminal Aerodrome Forecast
Issued by NWS

Home | Current Version | Previous Version | Graphics & Text | Print | Product List | Glossary Off
Versions: 1 2 3 4 5 6 7 8 9 10 11 12 13 14 15 16 17 18 19 20 21 22 23

000
FTUS41 KCLE 302123 AAA
TAFFDY
TAF AMD
KFDY 302123Z 3021/0118 10009KT P6SM -RA VCTS OVC017CB
      TEMPO 3021/3023 3SM RA OVC015
     FM010000 08010KT P6SM VCSH SCT015 OVC035
     FM010300 10007KT P6SM SCT035 OVC060
     FM010900 12003KT 4SM BR BKN010
     FM011500 15007KT P6SM BKN018 BKN035=

USA.gov is the U.S. government's official web portal to all federal, state and local government web resources and services.